Phillipsburg, Missouri
Current Conditions -  °F | °C
As of 11:15 PM on Friday 24 Oct 2014 (Local Time) from KH21 Reporting Station
Clear Clear  
Wind Chill: 18°   Ceiling: Unl
Heat Index: 18°   Visibility: 10mi
Dew Point: 15°   Wind: 7mph
Humidity: 83%   Direction: 200°SSW
Pressure: 30.04"   Gusts: NA
Location:  37.55°N, 92.78°W
Report Text: KH21 250415Z AUTO 20006KT 10SM CLR 18/15 A3004 RMK AO2
Loading
Personal Weather Stations






























Interactive Weather Map
Tropical Storm Tracking
New forecast layout! Learn more

10-Day Weather Forecast

Advertisements
Track Severe Weather on mobile